CheckWX is a tool to help pilots better visualize weather data.  It is not intended as a substitute for an official pre-flight weather briefing.

19:39:35 UTC

KOMA METAR
Eppley Airfield Airport
Omaha, Nebraska, USA
Current

48 mins ago

KOMA 201852Z 15013KT 10SM OVC250 16/07 A2973 RMK AO2 SLP068 T01610067
Observed
Nov-20 @ 18:52 UTC
Wind
  • 150° at 13 KTS
Visibility
10 SM
Flight Rules
VFR
Cloud Levels
  • Overcast at 25,000' AGL
Temperature
16°C / 61°F
Dewpoint
C / 45°F
Humidity
55%
Altimeter
29.73" Hg
Pressure
1006.82 hPa
Previous

2 hours ago

KOMA 201752Z 16011KT 10SM OVC250 15/05 A2977 RMK AO2 SLP081 T01500050 10150 20072 58021
Observed
Nov-20 @ 17:52 UTC
Wind
  • 160° at 11 KTS
Visibility
10 SM
Flight Rules
VFR
Cloud Levels
  • Overcast at 25,000' AGL
Temperature
15°C / 59°F
Dewpoint
C / 41°F
Humidity
51%
Altimeter
29.77" Hg
Pressure
1008.12 hPa
Previous

3 hours ago

KOMA 201652Z 15015G23KT 10SM OVC250 14/04 A2980 RMK AO2 SLP093 T01440039
Observed
Nov-20 @ 16:52 UTC
Wind
  • 150° at 15 KTS
  • Gusting to 23 KTS
Visibility
10 SM
Flight Rules
VFR
Cloud Levels
  • Overcast at 25,000' AGL
Temperature
14°C / 57°F
Dewpoint
C / 39°F
Humidity
51%
Altimeter
29.8" Hg
Pressure
1009.12 hPa